LUJ458 TNCM-KIAD
Flight info
| Callsign | LUJ458 |
|---|---|
| Flight time | 3h 53m |
| Altitude | 32000 |
| Route | MODOR2 TRNKY DCT HANCY/M079F320 L456 VINSO/M079F340 L456 MEGGG DCT GRAMN DCT ALOBI/N0465F340 DCT NAALA DCT ECG DCT GEARS DCT TRSSK CAVLR6 |
| Aircraft | B738/M-SDE2E3FGHIRWXY/LB1 |
Departure
| Time | 2026-05-07 16:13 |
|---|---|
| Airport | Princess Juliana International Airport (TNCM) |
Arrival
| Time | 2026-05-07 20:07 |
|---|---|
| Airport | Washington Dulles International Airport (KIAD) |
| Time | Latitude | Longitude | Altitude | Speed | Heading |
|---|---|---|---|---|---|
| 2026-05-07 15:34 | 18.04255 | -63.11544 | 28 ft | 0 kts | 320° |
| 2026-05-07 15:49 | 18.04255 | -63.11543 | 28 ft | 0 kts | 320° |
| 2026-05-07 16:02 | 18.04237 | -63.11526 | 26 ft | 4 kts | 315° |
| 2026-05-07 16:03 | 18.04219 | -63.11505 | 27 ft | 4 kts | 296° |
| 2026-05-07 16:03 | 18.04216 | -63.11483 | 27 ft | 3 kts | 237° |
| 2026-05-07 16:03 | 18.04217 | -63.11480 | 26 ft | 2 kts | 233° |
| 2026-05-07 16:04 | 18.04218 | -63.11480 | 26 ft | 0 kts | 233° |
| 2026-05-07 16:08 | 18.04216 | -63.11481 | 28 ft | 1 kts | 232° |
| 2026-05-07 16:08 | 18.04207 | -63.11494 | 28 ft | 3 kts | 232° |
| 2026-05-07 16:08 | 18.04188 | -63.11519 | 28 ft | 5 kts | 232° |
| 2026-05-07 16:09 | 18.04162 | -63.11554 | 27 ft | 7 kts | 231° |
| 2026-05-07 16:09 | 18.04127 | -63.11599 | 27 ft | 8 kts | 230° |
| 2026-05-07 16:09 | 18.04087 | -63.11651 | 27 ft | 10 kts | 231° |
| 2026-05-07 16:09 | 18.04060 | -63.11722 | 27 ft | 11 kts | 257° |
| 2026-05-07 16:10 | 18.04052 | -63.11778 | 27 ft | 6 kts | 264° |
| 2026-05-07 16:10 | 18.04047 | -63.11818 | 27 ft | 6 kts | 260° |
| 2026-05-07 16:10 | 18.04040 | -63.11858 | 27 ft | 5 kts | 260° |
| 2026-05-07 16:10 | 18.04040 | -63.11861 | 27 ft | 0 kts | 260° |
| 2026-05-07 16:11 | 18.04039 | -63.11864 | 27 ft | 1 kts | 260° |
| 2026-05-07 16:11 | 18.04037 | -63.11877 | 27 ft | 3 kts | 261° |
| 2026-05-07 16:11 | 18.04027 | -63.11902 | 27 ft | 5 kts | 244° |
| 2026-05-07 16:11 | 18.04001 | -63.11942 | 27 ft | 8 kts | 234° |
| 2026-05-07 16:12 | 18.03947 | -63.11954 | 27 ft | 10 kts | 136° |
| 2026-05-07 16:12 | 18.03944 | -63.11915 | 27 ft | 5 kts | 72° |
| 2026-05-07 16:12 | 18.03949 | -63.11891 | 27 ft | 0 kts | 82° |
| 2026-05-07 16:12 | 18.03949 | -63.11889 | 27 ft | 1 kts | 82° |
| 2026-05-07 16:13 | 18.03981 | -63.11664 | 27 ft | 72 kts | 82° |
| 2026-05-07 16:13 | 18.04098 | -63.10858 | 28 ft | 147 kts | 81° |
| 2026-05-07 16:13 | 18.04269 | -63.09646 | 421 ft | 178 kts | 84° |
| 2026-05-07 16:13 | 18.04134 | -63.08376 | 1451 ft | 181 kts | 121° |
| 2026-05-07 16:14 | 18.03152 | -63.07649 | 2630 ft | 179 kts | 167° |
| 2026-05-07 16:14 | 18.01916 | -63.07668 | 3462 ft | 184 kts | 179° |
| 2026-05-07 16:14 | 18.00556 | -63.07773 | 3815 ft | 211 kts | 179° |
| 2026-05-07 16:14 | 17.99010 | -63.07855 | 4059 ft | 231 kts | 180° |
| 2026-05-07 16:15 | 17.97326 | -63.07924 | 4283 ft | 252 kts | 180° |
| 2026-05-07 16:15 | 17.95517 | -63.07977 | 4660 ft | 269 kts | 179° |
| 2026-05-07 16:15 | 17.93611 | -63.08017 | 5305 ft | 277 kts | 180° |
| 2026-05-07 16:15 | 17.91706 | -63.08067 | 6138 ft | 278 kts | 180° |
| 2026-05-07 16:16 | 17.89759 | -63.08122 | 6896 ft | 282 kts | 180° |
| 2026-05-07 16:16 | 17.87781 | -63.08174 | 7586 ft | 287 kts | 180° |
| 2026-05-07 16:16 | 17.85788 | -63.08375 | 8320 ft | 290 kts | 192° |
| 2026-05-07 16:16 | 17.83902 | -63.09144 | 9051 ft | 294 kts | 212° |
| 2026-05-07 16:17 | 17.82363 | -63.10552 | 9803 ft | 295 kts | 233° |
| 2026-05-07 16:17 | 17.81361 | -63.12424 | 10452 ft | 299 kts | 251° |
| 2026-05-07 16:17 | 17.81102 | -63.14643 | 10630 ft | 319 kts | 279° |
| 2026-05-07 16:17 | 17.81936 | -63.16852 | 10803 ft | 338 kts | 307° |
| 2026-05-07 16:18 | 17.83732 | -63.18512 | 10948 ft | 356 kts | 333° |
| 2026-05-07 16:18 | 17.86151 | -63.19243 | 11145 ft | 372 kts | 354° |
| 2026-05-07 16:18 | 17.88757 | -63.19314 | 11577 ft | 378 kts | 0° |
| 2026-05-07 16:18 | 17.91396 | -63.19243 | 12199 ft | 379 kts | 0° |
| 2026-05-07 16:19 | 17.93151 | -63.19221 | 12575 ft | 381 kts | 360° |
| 2026-05-07 16:19 | 17.95814 | -63.19214 | 13107 ft | 385 kts | 359° |
| 2026-05-07 16:19 | 17.98497 | -63.19215 | 13638 ft | 387 kts | 359° |
| 2026-05-07 16:19 | 18.02100 | -63.19213 | 14290 ft | 391 kts | 359° |
| 2026-05-07 16:20 | 18.04831 | -63.19206 | 14788 ft | 393 kts | 360° |
| 2026-05-07 16:20 | 18.06681 | -63.19198 | 15125 ft | 394 kts | 359° |
| 2026-05-07 16:20 | 18.09439 | -63.19185 | 15591 ft | 397 kts | 359° |
| 2026-05-07 16:20 | 18.12213 | -63.19170 | 16082 ft | 399 kts | 359° |
| 2026-05-07 16:21 | 18.14967 | -63.19155 | 16548 ft | 402 kts | 359° |
| 2026-05-07 16:21 | 18.17778 | -63.19138 | 16995 ft | 405 kts | 359° |
| 2026-05-07 16:21 | 18.20607 | -63.19122 | 17452 ft | 407 kts | 359° |
| 2026-05-07 16:21 | 18.23449 | -63.19106 | 17929 ft | 409 kts | 359° |
| 2026-05-07 16:22 | 18.26314 | -63.19090 | 18373 ft | 412 kts | 359° |
| 2026-05-07 16:22 | 18.29185 | -63.19073 | 18757 ft | 414 kts | 359° |
| 2026-05-07 16:22 | 18.32078 | -63.19057 | 19153 ft | 416 kts | 359° |
| 2026-05-07 16:22 | 18.34983 | -63.19040 | 19538 ft | 418 kts | 359° |
| 2026-05-07 16:23 | 18.37903 | -63.19024 | 19914 ft | 420 kts | 359° |
| 2026-05-07 16:23 | 18.40818 | -63.19229 | 20257 ft | 422 kts | 347° |
| 2026-05-07 16:23 | 18.43573 | -63.20272 | 20625 ft | 422 kts | 331° |
| 2026-05-07 16:23 | 18.46006 | -63.22021 | 21015 ft | 424 kts | 323° |
| 2026-05-07 16:24 | 18.48358 | -63.23913 | 21356 ft | 426 kts | 322° |
| 2026-05-07 16:24 | 18.50706 | -63.25837 | 21675 ft | 429 kts | 322° |
| 2026-05-07 16:24 | 18.53062 | -63.27772 | 22017 ft | 431 kts | 322° |
| 2026-05-07 16:24 | 18.55410 | -63.29691 | 22340 ft | 433 kts | 323° |
| 2026-05-07 16:25 | 18.57802 | -63.31634 | 22654 ft | 435 kts | 323° |
| 2026-05-07 16:25 | 18.60213 | -63.33583 | 22979 ft | 437 kts | 323° |
| 2026-05-07 16:25 | 18.62629 | -63.35529 | 23286 ft | 438 kts | 323° |
| 2026-05-07 16:25 | 18.65057 | -63.37482 | 23575 ft | 440 kts | 323° |
| 2026-05-07 16:26 | 18.67499 | -63.39449 | 23836 ft | 442 kts | 323° |
| 2026-05-07 16:26 | 18.69948 | -63.41416 | 24079 ft | 444 kts | 323° |
| 2026-05-07 16:26 | 18.72409 | -63.43392 | 24313 ft | 446 kts | 323° |
| 2026-05-07 16:26 | 18.74878 | -63.45375 | 24545 ft | 447 kts | 323° |
| 2026-05-07 16:27 | 18.77361 | -63.47370 | 24785 ft | 448 kts | 323° |
| 2026-05-07 16:27 | 18.79848 | -63.49372 | 25009 ft | 450 kts | 323° |
| 2026-05-07 16:27 | 18.82344 | -63.51381 | 25225 ft | 452 kts | 323° |
| 2026-05-07 16:27 | 18.84849 | -63.53398 | 25446 ft | 453 kts | 323° |
| 2026-05-07 16:28 | 18.87366 | -63.55426 | 25674 ft | 455 kts | 323° |
| 2026-05-07 16:28 | 18.89880 | -63.57453 | 25893 ft | 456 kts | 323° |
| 2026-05-07 16:28 | 18.92410 | -63.59492 | 26094 ft | 457 kts | 323° |
| 2026-05-07 16:28 | 18.94942 | -63.61535 | 26317 ft | 459 kts | 323° |
| 2026-05-07 16:29 | 18.97450 | -63.63559 | 26519 ft | 460 kts | 323° |
| 2026-05-07 16:29 | 19.00001 | -63.65619 | 26705 ft | 462 kts | 323° |
| 2026-05-07 16:29 | 19.02552 | -63.67679 | 26910 ft | 463 kts | 323° |
| 2026-05-07 16:29 | 19.05120 | -63.69754 | 27128 ft | 463 kts | 323° |
| 2026-05-07 16:30 | 19.07678 | -63.71821 | 27421 ft | 462 kts | 323° |
| 2026-05-07 16:30 | 19.10225 | -63.73881 | 27740 ft | 461 kts | 323° |
| 2026-05-07 16:30 | 19.12770 | -63.75939 | 28073 ft | 459 kts | 323° |
| 2026-05-07 16:30 | 19.15305 | -63.77991 | 28371 ft | 459 kts | 323° |
| 2026-05-07 16:31 | 19.17840 | -63.80043 | 28681 ft | 458 kts | 323° |
| 2026-05-07 16:31 | 19.20370 | -63.82093 | 29004 ft | 457 kts | 323° |
| 2026-05-07 16:31 | 19.22895 | -63.84138 | 29354 ft | 456 kts | 323° |
| 2026-05-07 16:31 | 19.25406 | -63.86173 | 29699 ft | 454 kts | 323° |
| 2026-05-07 16:32 | 19.27914 | -63.88207 | 30038 ft | 453 kts | 323° |
| 2026-05-07 16:32 | 19.30417 | -63.90238 | 30345 ft | 452 kts | 323° |
| 2026-05-07 16:32 | 19.32915 | -63.92265 | 30646 ft | 451 kts | 323° |
| 2026-05-07 16:32 | 19.35374 | -63.94260 | 30926 ft | 450 kts | 323° |
| 2026-05-07 16:33 | 19.37856 | -63.96276 | 31226 ft | 449 kts | 323° |
| 2026-05-07 16:33 | 19.40328 | -63.98285 | 31543 ft | 447 kts | 323° |
| 2026-05-07 16:33 | 19.42793 | -64.00288 | 31856 ft | 446 kts | 323° |
| 2026-05-07 16:33 | 19.45271 | -64.02303 | 32115 ft | 446 kts | 322° |
| 2026-05-07 16:34 | 19.47741 | -64.04312 | 32086 ft | 449 kts | 322° |
| 2026-05-07 16:34 | 19.52686 | -64.08336 | 32094 ft | 446 kts | 322° |
| 2026-05-07 16:35 | 19.57590 | -64.12331 | 32101 ft | 443 kts | 322° |
| 2026-05-07 16:35 | 19.62444 | -64.16288 | 32116 ft | 441 kts | 322° |
| 2026-05-07 16:36 | 19.67308 | -64.20256 | 32100 ft | 441 kts | 322° |
| 2026-05-07 16:36 | 19.72176 | -64.24230 | 32115 ft | 441 kts | 322° |
| 2026-05-07 16:37 | 19.77047 | -64.28210 | 32111 ft | 442 kts | 322° |
| 2026-05-07 16:37 | 19.80584 | -64.31102 | 32113 ft | 443 kts | 322° |
| 2026-05-07 16:38 | 19.85471 | -64.35101 | 32113 ft | 444 kts | 322° |
| 2026-05-07 16:38 | 19.90347 | -64.39093 | 32113 ft | 445 kts | 322° |
| 2026-05-07 16:39 | 19.95263 | -64.43122 | 32105 ft | 447 kts | 322° |
| 2026-05-07 16:39 | 20.00191 | -64.47164 | 32124 ft | 447 kts | 322° |
| 2026-05-07 16:40 | 20.05121 | -64.51211 | 32105 ft | 448 kts | 322° |
| 2026-05-07 16:40 | 20.10058 | -64.55266 | 32101 ft | 448 kts | 322° |
| 2026-05-07 16:41 | 20.14950 | -64.59289 | 32113 ft | 448 kts | 322° |
| 2026-05-07 16:41 | 20.19878 | -64.63344 | 32105 ft | 447 kts | 322° |
| 2026-05-07 16:42 | 20.24796 | -64.67394 | 32111 ft | 447 kts | 321° |
| 2026-05-07 16:42 | 20.29727 | -64.71457 | 32113 ft | 446 kts | 321° |
| 2026-05-07 16:43 | 20.34633 | -64.75505 | 32117 ft | 446 kts | 321° |
| 2026-05-07 16:43 | 20.39535 | -64.79552 | 32108 ft | 445 kts | 321° |
| 2026-05-07 16:44 | 20.44396 | -64.83568 | 32113 ft | 445 kts | 321° |
| 2026-05-07 16:44 | 20.49284 | -64.87610 | 32114 ft | 444 kts | 321° |
| 2026-05-07 16:45 | 20.54167 | -64.91651 | 32109 ft | 444 kts | 321° |
| 2026-05-07 16:45 | 20.59051 | -64.95696 | 32114 ft | 444 kts | 321° |
| 2026-05-07 16:46 | 20.63936 | -64.99746 | 32113 ft | 444 kts | 321° |
| 2026-05-07 16:46 | 20.68811 | -65.03791 | 32122 ft | 444 kts | 321° |
| 2026-05-07 16:47 | 20.73691 | -65.07843 | 32109 ft | 444 kts | 321° |
| 2026-05-07 16:47 | 20.78568 | -65.11896 | 32117 ft | 443 kts | 321° |
| 2026-05-07 16:48 | 20.83411 | -65.15924 | 32124 ft | 443 kts | 321° |
| 2026-05-07 16:48 | 20.88281 | -65.19979 | 32110 ft | 443 kts | 321° |
| 2026-05-07 16:49 | 20.93146 | -65.24032 | 32110 ft | 443 kts | 321° |
| 2026-05-07 16:49 | 20.98019 | -65.28095 | 32111 ft | 443 kts | 320° |
| 2026-05-07 16:50 | 21.02870 | -65.32145 | 32109 ft | 442 kts | 320° |
| 2026-05-07 16:50 | 21.07042 | -65.35629 | 32126 ft | 442 kts | 320° |
| 2026-05-07 16:51 | 21.11294 | -65.39183 | 32117 ft | 442 kts | 320° |
| 2026-05-07 16:51 | 21.16140 | -65.43237 | 32112 ft | 442 kts | 320° |
| 2026-05-07 16:52 | 21.20985 | -65.47294 | 32116 ft | 442 kts | 320° |
| 2026-05-07 16:52 | 21.25828 | -65.51352 | 32119 ft | 442 kts | 320° |
| 2026-05-07 16:53 | 21.30642 | -65.55389 | 32113 ft | 442 kts | 320° |
| 2026-05-07 16:53 | 21.35480 | -65.59450 | 32120 ft | 442 kts | 320° |
| 2026-05-07 16:54 | 21.40329 | -65.63524 | 32117 ft | 442 kts | 320° |
| 2026-05-07 16:54 | 21.45174 | -65.67599 | 32117 ft | 441 kts | 320° |
| 2026-05-07 16:55 | 21.49981 | -65.71644 | 32116 ft | 441 kts | 320° |
| 2026-05-07 16:55 | 21.54841 | -65.75738 | 32120 ft | 441 kts | 320° |
| 2026-05-07 16:56 | 21.59639 | -65.79783 | 32119 ft | 441 kts | 320° |
| 2026-05-07 16:56 | 21.66893 | -65.85905 | 32122 ft | 441 kts | 320° |
| 2026-05-07 16:57 | 21.71724 | -65.89987 | 32119 ft | 441 kts | 320° |
| 2026-05-07 16:57 | 21.76550 | -65.94068 | 32117 ft | 441 kts | 320° |
| 2026-05-07 16:58 | 21.81368 | -65.98146 | 32119 ft | 441 kts | 320° |
| 2026-05-07 16:58 | 21.86188 | -66.02230 | 32122 ft | 441 kts | 320° |
| 2026-05-07 16:59 | 21.91002 | -66.06313 | 32117 ft | 441 kts | 320° |
| 2026-05-07 16:59 | 21.95818 | -66.10400 | 32117 ft | 441 kts | 320° |
| 2026-05-07 17:00 | 22.00614 | -66.14444 | 32116 ft | 441 kts | 323° |
| 2026-05-07 17:00 | 22.06112 | -66.17453 | 32121 ft | 446 kts | 338° |
| 2026-05-07 17:01 | 22.12191 | -66.18963 | 32107 ft | 450 kts | 346° |
| 2026-05-07 17:01 | 22.18363 | -66.20151 | 32119 ft | 451 kts | 347° |
| 2026-05-07 17:02 | 22.23500 | -66.21153 | 32127 ft | 451 kts | 346° |
| 2026-05-07 17:02 | 22.29672 | -66.22395 | 32125 ft | 451 kts | 346° |
| 2026-05-07 17:03 | 22.35845 | -66.23657 | 32121 ft | 451 kts | 346° |
| 2026-05-07 17:03 | 22.42009 | -66.24921 | 32124 ft | 451 kts | 346° |
| 2026-05-07 17:04 | 22.48139 | -66.26177 | 32123 ft | 450 kts | 346° |
| 2026-05-07 17:04 | 22.54296 | -66.27440 | 32123 ft | 450 kts | 346° |
| 2026-05-07 17:05 | 22.60447 | -66.28702 | 32126 ft | 449 kts | 346° |
| 2026-05-07 17:05 | 22.66575 | -66.29960 | 32125 ft | 448 kts | 346° |
| 2026-05-07 17:06 | 22.72703 | -66.31220 | 32123 ft | 447 kts | 346° |
| 2026-05-07 17:06 | 22.78815 | -66.32478 | 32123 ft | 446 kts | 346° |
| 2026-05-07 17:07 | 22.84913 | -66.33735 | 32126 ft | 445 kts | 347° |
| 2026-05-07 17:07 | 22.90993 | -66.34988 | 32127 ft | 444 kts | 347° |
| 2026-05-07 17:08 | 22.97073 | -66.36244 | 32124 ft | 444 kts | 347° |
| 2026-05-07 17:08 | 23.03103 | -66.37491 | 32125 ft | 443 kts | 347° |
| 2026-05-07 17:09 | 23.09172 | -66.38748 | 32126 ft | 443 kts | 347° |
| 2026-05-07 17:09 | 23.15221 | -66.40003 | 32124 ft | 442 kts | 347° |
| 2026-05-07 17:10 | 23.21154 | -66.41243 | 32108 ft | 427 kts | 351° |
| 2026-05-07 17:10 | 23.26994 | -66.42452 | 32129 ft | 428 kts | 351° |
| 2026-05-07 17:11 | 23.32827 | -66.43661 | 32128 ft | 430 kts | 351° |
| 2026-05-07 17:11 | 23.38713 | -66.44884 | 32127 ft | 431 kts | 351° |
| 2026-05-07 17:12 | 23.43354 | -66.45850 | 32127 ft | 432 kts | 351° |
| 2026-05-07 17:12 | 23.46677 | -66.46543 | 32127 ft | 432 kts | 351° |
| 2026-05-07 17:13 | 23.48322 | -66.46886 | 32125 ft | 432 kts | 351° |
| 2026-05-07 17:13 | 23.51220 | -66.47479 | 32097 ft | 432 kts | 352° |
| 2026-05-07 17:14 | 23.52964 | -66.47836 | 32122 ft | 432 kts | 351° |
| 2026-05-07 17:15 | 23.58867 | -66.49071 | 32121 ft | 432 kts | 351° |
| 2026-05-07 17:15 | 23.64772 | -66.50315 | 32129 ft | 431 kts | 351° |
| 2026-05-07 17:16 | 23.70665 | -66.51552 | 32128 ft | 431 kts | 351° |
| 2026-05-07 17:16 | 23.76546 | -66.52785 | 32127 ft | 431 kts | 351° |
| 2026-05-07 17:17 | 23.82439 | -66.54019 | 32126 ft | 430 kts | 351° |
| 2026-05-07 17:17 | 23.88287 | -66.55245 | 32124 ft | 430 kts | 351° |
| 2026-05-07 17:18 | 23.94170 | -66.56480 | 32128 ft | 430 kts | 351° |
| 2026-05-07 17:18 | 24.00036 | -66.57709 | 32128 ft | 429 kts | 352° |
| 2026-05-07 17:19 | 24.05905 | -66.58930 | 32124 ft | 429 kts | 351° |
| 2026-05-07 17:19 | 24.11767 | -66.60175 | 32127 ft | 429 kts | 351° |
| 2026-05-07 17:20 | 24.17625 | -66.61414 | 32127 ft | 429 kts | 351° |
| 2026-05-07 17:20 | 24.23506 | -66.62656 | 32128 ft | 430 kts | 351° |
| 2026-05-07 17:21 | 24.29381 | -66.63896 | 32128 ft | 430 kts | 351° |
| 2026-05-07 17:21 | 24.30874 | -66.64211 | 32128 ft | 430 kts | 351° |
| 2026-05-07 17:22 | 24.31501 | -66.64343 | 32124 ft | 430 kts | 351° |
| 2026-05-07 17:22 | 24.37388 | -66.65587 | 32130 ft | 431 kts | 352° |
| 2026-05-07 17:23 | 24.43272 | -66.66832 | 32126 ft | 431 kts | 352° |
| 2026-05-07 17:23 | 24.48966 | -66.68038 | 32124 ft | 431 kts | 352° |
| 2026-05-07 17:24 | 24.53293 | -66.68955 | 32128 ft | 432 kts | 352° |
| 2026-05-07 17:24 | 24.59160 | -66.70199 | 32127 ft | 432 kts | 352° |
| 2026-05-07 17:25 | 24.65064 | -66.71453 | 32128 ft | 432 kts | 352° |
| 2026-05-07 17:25 | 24.70985 | -66.72711 | 32129 ft | 432 kts | 352° |
| 2026-05-07 17:26 | 24.75530 | -66.73678 | 32128 ft | 432 kts | 352° |
| 2026-05-07 17:26 | 24.78265 | -66.74260 | 32125 ft | 432 kts | 352° |
| 2026-05-07 17:27 | 24.84176 | -66.75519 | 32125 ft | 432 kts | 352° |
| 2026-05-07 17:27 | 24.90091 | -66.76780 | 32128 ft | 433 kts | 352° |
| 2026-05-07 17:28 | 24.95789 | -66.77996 | 32130 ft | 433 kts | 352° |
| 2026-05-07 17:28 | 25.01706 | -66.79260 | 32128 ft | 433 kts | 352° |
| 2026-05-07 17:29 | 25.07624 | -66.80525 | 32124 ft | 433 kts | 352° |
| 2026-05-07 17:29 | 25.13499 | -66.81782 | 32125 ft | 433 kts | 352° |
| 2026-05-07 17:30 | 25.17898 | -66.82724 | 32132 ft | 433 kts | 352° |
| 2026-05-07 17:30 | 25.23818 | -66.83993 | 32128 ft | 433 kts | 352° |
| 2026-05-07 17:31 | 25.29748 | -66.85266 | 32130 ft | 433 kts | 352° |
| 2026-05-07 17:31 | 25.35624 | -66.86528 | 32126 ft | 433 kts | 352° |
| 2026-05-07 17:32 | 25.41565 | -66.87806 | 32127 ft | 433 kts | 352° |
| 2026-05-07 17:32 | 25.46490 | -66.88866 | 32131 ft | 434 kts | 352° |
| 2026-05-07 17:33 | 25.53410 | -66.90357 | 32133 ft | 434 kts | 351° |
| 2026-05-07 17:33 | 25.58246 | -66.91399 | 32133 ft | 434 kts | 351° |
| 2026-05-07 17:34 | 25.64144 | -66.92672 | 32131 ft | 434 kts | 351° |
| 2026-05-07 17:34 | 25.70076 | -66.93954 | 32131 ft | 434 kts | 351° |
| 2026-05-07 17:35 | 25.74901 | -66.94997 | 32132 ft | 434 kts | 351° |
| 2026-05-07 17:35 | 25.80816 | -66.96278 | 32132 ft | 434 kts | 351° |
| 2026-05-07 17:36 | 25.86421 | -66.97493 | 32133 ft | 435 kts | 351° |
| 2026-05-07 17:36 | 25.92468 | -66.98804 | 32133 ft | 435 kts | 351° |
| 2026-05-07 17:37 | 25.98416 | -67.00096 | 32135 ft | 435 kts | 351° |
| 2026-05-07 17:37 | 26.04363 | -67.01388 | 32133 ft | 435 kts | 351° |
| 2026-05-07 17:38 | 26.10310 | -67.02682 | 32132 ft | 435 kts | 351° |
| 2026-05-07 17:38 | 26.16221 | -67.03969 | 32133 ft | 436 kts | 351° |
| 2026-05-07 17:39 | 26.22175 | -67.05268 | 32130 ft | 436 kts | 351° |
| 2026-05-07 17:39 | 26.28126 | -67.06566 | 32132 ft | 436 kts | 351° |
| 2026-05-07 17:40 | 26.34096 | -67.07871 | 32131 ft | 437 kts | 351° |
| 2026-05-07 17:40 | 26.37082 | -67.08524 | 32131 ft | 437 kts | 351° |
| 2026-05-07 17:41 | 26.37380 | -67.08589 | 32133 ft | 437 kts | 351° |
| 2026-05-07 17:41 | 26.42614 | -67.09734 | 32131 ft | 438 kts | 350° |
| 2026-05-07 17:42 | 26.48561 | -67.11037 | 32131 ft | 438 kts | 350° |
| 2026-05-07 17:42 | 26.54566 | -67.12353 | 32130 ft | 439 kts | 350° |
| 2026-05-07 17:43 | 26.60570 | -67.13671 | 32131 ft | 440 kts | 350° |
| 2026-05-07 17:43 | 26.66580 | -67.14992 | 32134 ft | 440 kts | 350° |
| 2026-05-07 17:44 | 26.72596 | -67.16315 | 32130 ft | 441 kts | 350° |
| 2026-05-07 17:44 | 26.77602 | -67.17418 | 32132 ft | 441 kts | 350° |
| 2026-05-07 17:45 | 26.83625 | -67.18745 | 32132 ft | 441 kts | 349° |
| 2026-05-07 17:45 | 26.89659 | -67.20077 | 32132 ft | 442 kts | 349° |
| 2026-05-07 17:46 | 26.95656 | -67.21402 | 32135 ft | 442 kts | 349° |
| 2026-05-07 17:46 | 27.01692 | -67.22736 | 32134 ft | 442 kts | 349° |
| 2026-05-07 17:47 | 27.07741 | -67.24075 | 32131 ft | 442 kts | 349° |
| 2026-05-07 17:47 | 27.13792 | -67.25417 | 32131 ft | 443 kts | 349° |
| 2026-05-07 17:48 | 27.19835 | -67.26761 | 32131 ft | 443 kts | 349° |
| 2026-05-07 17:48 | 27.25895 | -67.28109 | 32207 ft | 446 kts | 349° |
| 2026-05-07 17:49 | 27.28940 | -67.28787 | 32526 ft | 445 kts | 348° |
| 2026-05-07 17:49 | 27.31964 | -67.29461 | 32961 ft | 441 kts | 348° |
| 2026-05-07 17:49 | 27.34965 | -67.30130 | 33424 ft | 436 kts | 348° |
| 2026-05-07 17:49 | 27.37925 | -67.30790 | 33885 ft | 431 kts | 348° |
| 2026-05-07 17:50 | 27.40860 | -67.31445 | 34116 ft | 431 kts | 348° |
| 2026-05-07 17:50 | 27.43778 | -67.32097 | 34123 ft | 433 kts | 348° |
| 2026-05-07 17:50 | 27.49683 | -67.33417 | 34125 ft | 431 kts | 348° |
| 2026-05-07 17:51 | 27.55561 | -67.34732 | 34129 ft | 429 kts | 348° |
| 2026-05-07 17:51 | 27.61405 | -67.36041 | 34137 ft | 428 kts | 347° |
| 2026-05-07 17:52 | 27.67246 | -67.37350 | 34135 ft | 427 kts | 347° |
| 2026-05-07 17:52 | 27.73068 | -67.38657 | 34128 ft | 427 kts | 347° |
| 2026-05-07 17:53 | 27.78915 | -67.39971 | 34131 ft | 428 kts | 347° |
| 2026-05-07 17:53 | 27.84748 | -67.41284 | 34136 ft | 430 kts | 347° |
| 2026-05-07 17:54 | 27.90640 | -67.42611 | 34133 ft | 432 kts | 347° |
| 2026-05-07 17:54 | 27.96558 | -67.43945 | 34130 ft | 434 kts | 347° |
| 2026-05-07 17:55 | 28.02496 | -67.45286 | 34130 ft | 435 kts | 347° |
| 2026-05-07 17:55 | 28.08451 | -67.46631 | 34134 ft | 437 kts | 347° |
| 2026-05-07 17:56 | 28.14412 | -67.47980 | 34133 ft | 437 kts | 347° |
| 2026-05-07 17:56 | 28.20385 | -67.49333 | 34135 ft | 437 kts | 347° |
| 2026-05-07 17:57 | 28.25350 | -67.50458 | 34131 ft | 437 kts | 347° |
| 2026-05-07 17:57 | 28.32348 | -67.52128 | 34124 ft | 436 kts | 340° |
| 2026-05-07 17:58 | 28.37645 | -67.55326 | 34134 ft | 432 kts | 322° |
| 2026-05-07 17:58 | 28.41826 | -67.60205 | 34142 ft | 432 kts | 311° |
| 2026-05-07 17:59 | 28.45711 | -67.65417 | 34136 ft | 432 kts | 311° |
| 2026-05-07 17:59 | 28.49593 | -67.70615 | 34130 ft | 431 kts | 311° |
| 2026-05-07 18:00 | 28.53501 | -67.75801 | 34135 ft | 431 kts | 311° |
| 2026-05-07 18:00 | 28.57424 | -67.80988 | 34138 ft | 431 kts | 311° |
| 2026-05-07 18:01 | 28.61313 | -67.86130 | 34129 ft | 431 kts | 311° |
| 2026-05-07 18:01 | 28.65222 | -67.91306 | 34134 ft | 430 kts | 311° |
| 2026-05-07 18:02 | 28.71079 | -67.99074 | 34138 ft | 430 kts | 311° |
| 2026-05-07 18:03 | 28.74949 | -68.04216 | 34134 ft | 430 kts | 311° |
| 2026-05-07 18:03 | 28.78846 | -68.09398 | 34135 ft | 430 kts | 310° |
| 2026-05-07 18:04 | 28.82735 | -68.14578 | 34135 ft | 429 kts | 310° |
| 2026-05-07 18:04 | 28.86622 | -68.19761 | 34128 ft | 429 kts | 310° |
| 2026-05-07 18:05 | 28.90474 | -68.24904 | 34127 ft | 429 kts | 310° |
| 2026-05-07 18:05 | 28.94347 | -68.30082 | 34124 ft | 429 kts | 310° |
| 2026-05-07 18:06 | 28.98219 | -68.35263 | 34128 ft | 429 kts | 310° |
| 2026-05-07 18:06 | 29.02094 | -68.40457 | 34128 ft | 429 kts | 310° |
| 2026-05-07 18:07 | 29.05974 | -68.45664 | 34133 ft | 430 kts | 310° |
| 2026-05-07 18:07 | 29.09852 | -68.50874 | 34130 ft | 430 kts | 310° |
| 2026-05-07 18:08 | 29.13708 | -68.56061 | 34123 ft | 430 kts | 310° |
| 2026-05-07 18:08 | 29.17587 | -68.61286 | 34126 ft | 431 kts | 310° |
| 2026-05-07 18:09 | 29.21469 | -68.66523 | 34127 ft | 431 kts | 310° |
| 2026-05-07 18:09 | 29.25347 | -68.71759 | 34123 ft | 431 kts | 310° |
| 2026-05-07 18:10 | 29.29226 | -68.77005 | 34122 ft | 432 kts | 309° |
| 2026-05-07 18:10 | 29.33109 | -68.82262 | 34128 ft | 432 kts | 309° |
| 2026-05-07 18:11 | 29.36990 | -68.87523 | 34122 ft | 432 kts | 309° |
| 2026-05-07 18:11 | 29.40847 | -68.92759 | 34122 ft | 432 kts | 309° |
| 2026-05-07 18:12 | 29.44724 | -68.98029 | 34124 ft | 432 kts | 309° |
| 2026-05-07 18:12 | 29.48605 | -69.03311 | 34118 ft | 432 kts | 309° |
| 2026-05-07 18:13 | 29.52478 | -69.08589 | 34120 ft | 432 kts | 309° |
| 2026-05-07 18:13 | 29.56359 | -69.13886 | 34121 ft | 432 kts | 309° |
| 2026-05-07 18:14 | 29.60228 | -69.19171 | 34118 ft | 432 kts | 309° |
| 2026-05-07 18:14 | 29.64071 | -69.24428 | 34117 ft | 432 kts | 309° |
| 2026-05-07 18:15 | 29.67940 | -69.29729 | 34117 ft | 431 kts | 309° |
| 2026-05-07 18:15 | 29.71799 | -69.35023 | 34114 ft | 431 kts | 309° |
| 2026-05-07 18:16 | 29.75652 | -69.40315 | 34110 ft | 431 kts | 309° |
| 2026-05-07 18:16 | 29.79503 | -69.45612 | 34114 ft | 431 kts | 309° |
| 2026-05-07 18:17 | 29.83355 | -69.50916 | 34116 ft | 430 kts | 309° |
| 2026-05-07 18:17 | 29.87193 | -69.56208 | 34111 ft | 430 kts | 309° |
| 2026-05-07 18:18 | 29.91029 | -69.61505 | 34110 ft | 430 kts | 309° |
| 2026-05-07 18:18 | 29.94865 | -69.66809 | 34111 ft | 430 kts | 309° |
| 2026-05-07 18:19 | 29.98699 | -69.72116 | 34114 ft | 430 kts | 309° |
| 2026-05-07 18:19 | 30.01880 | -69.76525 | 34110 ft | 430 kts | 308° |
| 2026-05-07 18:20 | 30.06330 | -69.82702 | 34107 ft | 430 kts | 308° |
| 2026-05-07 18:20 | 30.10159 | -69.88025 | 34111 ft | 430 kts | 308° |
| 2026-05-07 18:21 | 30.13989 | -69.93356 | 34110 ft | 431 kts | 308° |
| 2026-05-07 18:21 | 30.17793 | -69.98657 | 34105 ft | 431 kts | 308° |
| 2026-05-07 18:22 | 30.21620 | -70.03999 | 34105 ft | 431 kts | 308° |
| 2026-05-07 18:22 | 30.25440 | -70.09338 | 34107 ft | 431 kts | 308° |
| 2026-05-07 18:23 | 30.28627 | -70.13798 | 34107 ft | 431 kts | 308° |
| 2026-05-07 18:23 | 30.32443 | -70.19144 | 34103 ft | 431 kts | 308° |
| 2026-05-07 18:24 | 30.36289 | -70.24488 | 34103 ft | 431 kts | 311° |
| 2026-05-07 18:24 | 30.40800 | -70.29007 | 34106 ft | 433 kts | 320° |
| 2026-05-07 18:25 | 30.45604 | -70.33222 | 34100 ft | 432 kts | 321° |
| 2026-05-07 18:25 | 30.50405 | -70.37453 | 34100 ft | 432 kts | 320° |
| 2026-05-07 18:26 | 30.55142 | -70.41667 | 34102 ft | 432 kts | 320° |
| 2026-05-07 18:26 | 30.59902 | -70.45923 | 34096 ft | 431 kts | 320° |
| 2026-05-07 18:27 | 30.64659 | -70.50187 | 34094 ft | 431 kts | 320° |
| 2026-05-07 18:27 | 30.69399 | -70.54440 | 34094 ft | 430 kts | 320° |
| 2026-05-07 18:28 | 30.74105 | -70.58667 | 34094 ft | 429 kts | 320° |
| 2026-05-07 18:28 | 30.78831 | -70.62918 | 34093 ft | 429 kts | 320° |
| 2026-05-07 18:29 | 30.83555 | -70.67171 | 34093 ft | 429 kts | 320° |
| 2026-05-07 18:29 | 30.88266 | -70.71419 | 34094 ft | 428 kts | 320° |
| 2026-05-07 18:30 | 30.92966 | -70.75663 | 34090 ft | 428 kts | 319° |
| 2026-05-07 18:30 | 30.97684 | -70.79928 | 34090 ft | 428 kts | 319° |
| 2026-05-07 18:31 | 31.02360 | -70.84160 | 34086 ft | 428 kts | 319° |
| 2026-05-07 18:31 | 31.07070 | -70.88429 | 34082 ft | 428 kts | 319° |
| 2026-05-07 18:32 | 31.11770 | -70.92694 | 34083 ft | 428 kts | 319° |
| 2026-05-07 18:32 | 31.16473 | -70.96967 | 34085 ft | 428 kts | 319° |
| 2026-05-07 18:33 | 31.21173 | -71.01243 | 34085 ft | 428 kts | 319° |
| 2026-05-07 18:33 | 31.25873 | -71.05525 | 34075 ft | 429 kts | 319° |
| 2026-05-07 18:34 | 31.30576 | -71.09815 | 34075 ft | 429 kts | 319° |
| 2026-05-07 18:34 | 31.35281 | -71.14113 | 34077 ft | 429 kts | 319° |
| 2026-05-07 18:35 | 31.39992 | -71.18421 | 34079 ft | 429 kts | 319° |
| 2026-05-07 18:35 | 31.44700 | -71.22733 | 34077 ft | 429 kts | 319° |
| 2026-05-07 18:36 | 31.49404 | -71.27046 | 34069 ft | 429 kts | 318° |
| 2026-05-07 18:36 | 31.54113 | -71.31369 | 34067 ft | 429 kts | 318° |
| 2026-05-07 18:37 | 31.58817 | -71.35694 | 34065 ft | 429 kts | 318° |
| 2026-05-07 18:37 | 31.63511 | -71.40016 | 34062 ft | 429 kts | 318° |
| 2026-05-07 18:38 | 31.68209 | -71.44346 | 34063 ft | 429 kts | 318° |
| 2026-05-07 18:38 | 31.72871 | -71.48649 | 34058 ft | 429 kts | 318° |
| 2026-05-07 18:39 | 31.77562 | -71.52986 | 34058 ft | 428 kts | 318° |
| 2026-05-07 18:39 | 31.82245 | -71.57319 | 34056 ft | 428 kts | 317° |
| 2026-05-07 18:40 | 31.86923 | -71.61655 | 34050 ft | 428 kts | 317° |
| 2026-05-07 18:40 | 31.91592 | -71.65988 | 34053 ft | 427 kts | 317° |
| 2026-05-07 18:41 | 31.96251 | -71.70318 | 34051 ft | 427 kts | 317° |
| 2026-05-07 18:41 | 32.00906 | -71.74649 | 34045 ft | 426 kts | 317° |
| 2026-05-07 18:42 | 32.05587 | -71.78938 | 34040 ft | 427 kts | 320° |
| 2026-05-07 18:42 | 32.10490 | -71.82900 | 34045 ft | 428 kts | 322° |
| 2026-05-07 18:43 | 32.15456 | -71.86771 | 34032 ft | 427 kts | 322° |
| 2026-05-07 18:43 | 32.20370 | -71.90636 | 34038 ft | 427 kts | 321° |
| 2026-05-07 18:44 | 32.25293 | -71.94547 | 34033 ft | 426 kts | 321° |
| 2026-05-07 18:44 | 32.30204 | -71.98469 | 34031 ft | 426 kts | 321° |
| 2026-05-07 18:45 | 32.35110 | -72.02395 | 34028 ft | 425 kts | 321° |
| 2026-05-07 18:45 | 32.40012 | -72.06323 | 34029 ft | 425 kts | 321° |
| 2026-05-07 18:46 | 32.44909 | -72.10252 | 34024 ft | 425 kts | 321° |
| 2026-05-07 18:46 | 32.49809 | -72.14187 | 34023 ft | 425 kts | 321° |
| 2026-05-07 18:47 | 32.54705 | -72.18125 | 34019 ft | 426 kts | 321° |
| 2026-05-07 18:47 | 32.59603 | -72.22071 | 34015 ft | 426 kts | 321° |
| 2026-05-07 18:48 | 32.64508 | -72.26026 | 34015 ft | 426 kts | 320° |
| 2026-05-07 18:48 | 32.69413 | -72.29987 | 34008 ft | 427 kts | 320° |
| 2026-05-07 18:49 | 32.74319 | -72.33955 | 34011 ft | 427 kts | 320° |
| 2026-05-07 18:49 | 32.79231 | -72.37931 | 34000 ft | 427 kts | 320° |
| 2026-05-07 18:50 | 32.84145 | -72.41916 | 34001 ft | 427 kts | 320° |
| 2026-05-07 18:50 | 32.89059 | -72.45906 | 34001 ft | 428 kts | 320° |
| 2026-05-07 18:51 | 32.93973 | -72.49901 | 33994 ft | 428 kts | 320° |
| 2026-05-07 18:51 | 32.98886 | -72.53901 | 33985 ft | 428 kts | 320° |
| 2026-05-07 18:52 | 33.03798 | -72.57906 | 33986 ft | 427 kts | 320° |
| 2026-05-07 18:52 | 33.08702 | -72.61909 | 33986 ft | 427 kts | 320° |
| 2026-05-07 18:53 | 33.13607 | -72.65919 | 33984 ft | 427 kts | 320° |
| 2026-05-07 18:53 | 33.18511 | -72.69934 | 33981 ft | 428 kts | 320° |
| 2026-05-07 18:54 | 33.23417 | -72.73956 | 33977 ft | 428 kts | 320° |
| 2026-05-07 18:54 | 33.28327 | -72.77988 | 33973 ft | 428 kts | 320° |
| 2026-05-07 18:55 | 33.33235 | -72.82023 | 33972 ft | 428 kts | 320° |
| 2026-05-07 18:55 | 33.38122 | -72.86046 | 33959 ft | 429 kts | 320° |
| 2026-05-07 18:56 | 33.43044 | -72.90104 | 33966 ft | 429 kts | 320° |
| 2026-05-07 18:56 | 33.47965 | -72.94166 | 33963 ft | 430 kts | 320° |
| 2026-05-07 18:57 | 33.52892 | -72.98239 | 33956 ft | 430 kts | 320° |
| 2026-05-07 18:57 | 33.57824 | -73.02322 | 33950 ft | 431 kts | 320° |
| 2026-05-07 18:58 | 33.62764 | -73.06417 | 33949 ft | 432 kts | 320° |
| 2026-05-07 18:58 | 33.67707 | -73.10522 | 33937 ft | 432 kts | 320° |
| 2026-05-07 18:59 | 33.72654 | -73.14634 | 33938 ft | 433 kts | 320° |
| 2026-05-07 18:59 | 33.77605 | -73.18757 | 33935 ft | 433 kts | 320° |
| 2026-05-07 19:00 | 33.82556 | -73.22884 | 33932 ft | 433 kts | 320° |
| 2026-05-07 19:00 | 33.87504 | -73.27015 | 33922 ft | 433 kts | 320° |
| 2026-05-07 19:01 | 33.92448 | -73.31149 | 33922 ft | 432 kts | 319° |
| 2026-05-07 19:01 | 33.97386 | -73.35284 | 33921 ft | 432 kts | 319° |
| 2026-05-07 19:02 | 34.02286 | -73.39393 | 33920 ft | 431 kts | 319° |
| 2026-05-07 19:02 | 34.07206 | -73.43525 | 33917 ft | 430 kts | 319° |
| 2026-05-07 19:03 | 34.12123 | -73.47661 | 33914 ft | 430 kts | 319° |
| 2026-05-07 19:03 | 34.17019 | -73.51784 | 33914 ft | 429 kts | 319° |
| 2026-05-07 19:04 | 34.21081 | -73.55209 | 33914 ft | 428 kts | 318° |
| 2026-05-07 19:04 | 34.25133 | -73.58631 | 33912 ft | 427 kts | 318° |
| 2026-05-07 19:05 | 34.29445 | -73.62276 | 33911 ft | 426 kts | 318° |
| 2026-05-07 19:05 | 34.34300 | -73.66387 | 33903 ft | 425 kts | 318° |
| 2026-05-07 19:06 | 34.39108 | -73.70464 | 33898 ft | 424 kts | 317° |
| 2026-05-07 19:06 | 34.44689 | -73.75203 | 33898 ft | 423 kts | 317° |
| 2026-05-07 19:07 | 34.49500 | -73.79305 | 33897 ft | 422 kts | 317° |
| 2026-05-07 19:07 | 34.54242 | -73.83471 | 33890 ft | 417 kts | 312° |
| 2026-05-07 19:08 | 34.58204 | -73.88470 | 33892 ft | 409 kts | 305° |
| 2026-05-07 19:08 | 34.62027 | -73.93590 | 33894 ft | 409 kts | 305° |
| 2026-05-07 19:09 | 34.65867 | -73.98712 | 33886 ft | 410 kts | 305° |
| 2026-05-07 19:09 | 34.69713 | -74.03825 | 33877 ft | 410 kts | 306° |
| 2026-05-07 19:10 | 34.73542 | -74.08914 | 33878 ft | 411 kts | 306° |
| 2026-05-07 19:10 | 34.77398 | -74.14045 | 33873 ft | 412 kts | 306° |
| 2026-05-07 19:11 | 34.81269 | -74.19202 | 33870 ft | 413 kts | 305° |
| 2026-05-07 19:11 | 34.85143 | -74.24371 | 33866 ft | 413 kts | 306° |
| 2026-05-07 19:12 | 34.89023 | -74.29558 | 33857 ft | 414 kts | 306° |
| 2026-05-07 19:12 | 34.92911 | -74.34761 | 33856 ft | 415 kts | 306° |
| 2026-05-07 19:13 | 34.96805 | -74.39981 | 33856 ft | 416 kts | 306° |
| 2026-05-07 19:13 | 35.00695 | -74.45202 | 33849 ft | 416 kts | 305° |
| 2026-05-07 19:14 | 35.04561 | -74.50401 | 33847 ft | 416 kts | 305° |
| 2026-05-07 19:14 | 35.08453 | -74.55641 | 33844 ft | 416 kts | 305° |
| 2026-05-07 19:15 | 35.12339 | -74.60881 | 33840 ft | 415 kts | 305° |
| 2026-05-07 19:15 | 35.16193 | -74.66086 | 33838 ft | 413 kts | 304° |
| 2026-05-07 19:16 | 35.20047 | -74.71300 | 33839 ft | 411 kts | 304° |
| 2026-05-07 19:16 | 35.23868 | -74.76476 | 33834 ft | 409 kts | 304° |
| 2026-05-07 19:17 | 35.27669 | -74.81633 | 33831 ft | 407 kts | 304° |
| 2026-05-07 19:17 | 35.31444 | -74.86763 | 33824 ft | 404 kts | 304° |
| 2026-05-07 19:18 | 35.35197 | -74.91872 | 33827 ft | 402 kts | 303° |
| 2026-05-07 19:18 | 35.38931 | -74.96962 | 33825 ft | 401 kts | 303° |
| 2026-05-07 19:19 | 35.42653 | -75.02044 | 33835 ft | 400 kts | 303° |
| 2026-05-07 19:19 | 35.46368 | -75.07124 | 33824 ft | 399 kts | 303° |
| 2026-05-07 19:20 | 35.50076 | -75.12202 | 33836 ft | 399 kts | 303° |
| 2026-05-07 19:20 | 35.53775 | -75.17275 | 33842 ft | 398 kts | 303° |
| 2026-05-07 19:21 | 35.57464 | -75.22342 | 33855 ft | 399 kts | 303° |
| 2026-05-07 19:21 | 35.61161 | -75.27426 | 33853 ft | 398 kts | 303° |
| 2026-05-07 19:22 | 35.64847 | -75.32503 | 33844 ft | 397 kts | 302° |
| 2026-05-07 19:22 | 35.68509 | -75.37553 | 33857 ft | 395 kts | 302° |
| 2026-05-07 19:23 | 35.72163 | -75.42601 | 33863 ft | 394 kts | 302° |
| 2026-05-07 19:23 | 35.75796 | -75.47628 | 33870 ft | 393 kts | 302° |
| 2026-05-07 19:24 | 35.79421 | -75.52652 | 33881 ft | 392 kts | 302° |
| 2026-05-07 19:24 | 35.83030 | -75.57662 | 33885 ft | 391 kts | 302° |
| 2026-05-07 19:25 | 35.86640 | -75.62680 | 33888 ft | 391 kts | 302° |
| 2026-05-07 19:25 | 35.90267 | -75.67728 | 33893 ft | 390 kts | 302° |
| 2026-05-07 19:26 | 35.93843 | -75.72715 | 33896 ft | 391 kts | 302° |
| 2026-05-07 19:26 | 35.97454 | -75.77758 | 33895 ft | 392 kts | 302° |
| 2026-05-07 19:27 | 36.01068 | -75.82811 | 33870 ft | 393 kts | 302° |
| 2026-05-07 19:27 | 36.04689 | -75.87881 | 33869 ft | 394 kts | 302° |
| 2026-05-07 19:28 | 36.08311 | -75.92961 | 33868 ft | 394 kts | 302° |
| 2026-05-07 19:28 | 36.11965 | -75.98093 | 33886 ft | 394 kts | 301° |
| 2026-05-07 19:29 | 36.15588 | -76.03188 | 33901 ft | 394 kts | 301° |
| 2026-05-07 19:29 | 36.19201 | -76.08277 | 33894 ft | 392 kts | 301° |
| 2026-05-07 19:30 | 36.22773 | -76.13318 | 33895 ft | 390 kts | 301° |
| 2026-05-07 19:30 | 36.26344 | -76.18363 | 33906 ft | 388 kts | 300° |
| 2026-05-07 19:31 | 36.29914 | -76.23407 | 33902 ft | 386 kts | 300° |
| 2026-05-07 19:31 | 36.33444 | -76.28403 | 33903 ft | 384 kts | 300° |
| 2026-05-07 19:32 | 36.36953 | -76.33378 | 33902 ft | 382 kts | 300° |
| 2026-05-07 19:32 | 36.40442 | -76.38334 | 33901 ft | 381 kts | 300° |
| 2026-05-07 19:33 | 36.43925 | -76.43290 | 33908 ft | 380 kts | 300° |
| 2026-05-07 19:33 | 36.47398 | -76.48238 | 33914 ft | 380 kts | 300° |
| 2026-05-07 19:34 | 36.50872 | -76.53195 | 33917 ft | 380 kts | 300° |
| 2026-05-07 19:34 | 36.54342 | -76.58154 | 33922 ft | 381 kts | 300° |
| 2026-05-07 19:35 | 36.57797 | -76.63098 | 33927 ft | 381 kts | 300° |
| 2026-05-07 19:35 | 36.61277 | -76.68086 | 33929 ft | 382 kts | 300° |
| 2026-05-07 19:36 | 36.64770 | -76.73100 | 33927 ft | 384 kts | 300° |
| 2026-05-07 19:36 | 36.68283 | -76.78149 | 33922 ft | 385 kts | 300° |
| 2026-05-07 19:37 | 36.71788 | -76.83193 | 33911 ft | 384 kts | 299° |
| 2026-05-07 19:37 | 36.75295 | -76.88245 | 33915 ft | 384 kts | 299° |
| 2026-05-07 19:38 | 36.78781 | -76.93278 | 33924 ft | 383 kts | 299° |
| 2026-05-07 19:38 | 36.82234 | -76.98272 | 33924 ft | 382 kts | 299° |
| 2026-05-07 19:39 | 36.85699 | -77.03290 | 33916 ft | 381 kts | 298° |
| 2026-05-07 19:39 | 36.88572 | -77.07457 | 33917 ft | 380 kts | 298° |
| 2026-05-07 19:40 | 36.92596 | -77.13301 | 33920 ft | 379 kts | 298° |
| 2026-05-07 19:40 | 36.96025 | -77.18291 | 33919 ft | 378 kts | 298° |
| 2026-05-07 19:41 | 36.98867 | -77.22431 | 33923 ft | 377 kts | 298° |
| 2026-05-07 19:41 | 37.02276 | -77.27406 | 33929 ft | 376 kts | 298° |
| 2026-05-07 19:42 | 37.05673 | -77.32370 | 33949 ft | 375 kts | 298° |
| 2026-05-07 19:42 | 37.08954 | -77.37380 | 33935 ft | 365 kts | 292° |
| 2026-05-07 19:43 | 37.11324 | -77.42843 | 33935 ft | 349 kts | 282° |
| 2026-05-07 19:43 | 37.12956 | -77.48535 | 33939 ft | 347 kts | 281° |
| 2026-05-07 19:44 | 37.14570 | -77.54222 | 33931 ft | 347 kts | 281° |
| 2026-05-07 19:44 | 37.16179 | -77.59907 | 33942 ft | 346 kts | 281° |
| 2026-05-07 19:45 | 37.16980 | -77.62761 | 33527 ft | 351 kts | 281° |
| 2026-05-07 19:45 | 37.17791 | -77.65634 | 32968 ft | 349 kts | 281° |
| 2026-05-07 19:45 | 37.18600 | -77.68481 | 32336 ft | 346 kts | 281° |
| 2026-05-07 19:45 | 37.19406 | -77.71325 | 31649 ft | 346 kts | 281° |
| 2026-05-07 19:46 | 37.20233 | -77.74175 | 30911 ft | 350 kts | 284° |
| 2026-05-07 19:46 | 37.21553 | -77.76849 | 30182 ft | 372 kts | 296° |
| 2026-05-07 19:46 | 37.23400 | -77.79199 | 29492 ft | 387 kts | 306° |
| 2026-05-07 19:46 | 37.25671 | -77.81140 | 28937 ft | 402 kts | 315° |
| 2026-05-07 19:47 | 37.28280 | -77.82565 | 28419 ft | 420 kts | 327° |
| 2026-05-07 19:47 | 37.31262 | -77.83172 | 27892 ft | 448 kts | 341° |
| 2026-05-07 19:47 | 37.34395 | -77.83210 | 27379 ft | 451 kts | 345° |
| 2026-05-07 19:47 | 37.37532 | -77.83101 | 26835 ft | 451 kts | 346° |
| 2026-05-07 19:48 | 37.40613 | -77.82962 | 26305 ft | 447 kts | 346° |
| 2026-05-07 19:48 | 37.43749 | -77.82841 | 25768 ft | 444 kts | 346° |
| 2026-05-07 19:48 | 37.46832 | -77.82754 | 25245 ft | 440 kts | 346° |
| 2026-05-07 19:48 | 37.49890 | -77.82695 | 24699 ft | 438 kts | 346° |
| 2026-05-07 19:49 | 37.52929 | -77.82650 | 24171 ft | 437 kts | 346° |
| 2026-05-07 19:49 | 37.55966 | -77.82608 | 23644 ft | 435 kts | 346° |
| 2026-05-07 19:49 | 37.59002 | -77.82565 | 23032 ft | 434 kts | 347° |
| 2026-05-07 19:49 | 37.62006 | -77.82517 | 22475 ft | 431 kts | 347° |
| 2026-05-07 19:50 | 37.65006 | -77.82356 | 21936 ft | 439 kts | 356° |
| 2026-05-07 19:50 | 37.68018 | -77.81217 | 21311 ft | 463 kts | 13° |
| 2026-05-07 19:50 | 37.70959 | -77.79539 | 20679 ft | 464 kts | 15° |
| 2026-05-07 19:50 | 37.73882 | -77.77830 | 20024 ft | 463 kts | 16° |
| 2026-05-07 19:51 | 37.76817 | -77.76131 | 19383 ft | 461 kts | 15° |
| 2026-05-07 19:51 | 37.79730 | -77.74479 | 18727 ft | 459 kts | 15° |
| 2026-05-07 19:51 | 37.82617 | -77.72863 | 18048 ft | 447 kts | 15° |
| 2026-05-07 19:51 | 37.85425 | -77.71299 | 17354 ft | 434 kts | 15° |
| 2026-05-07 19:52 | 37.88139 | -77.69786 | 16829 ft | 418 kts | 15° |
| 2026-05-07 19:52 | 37.90772 | -77.68320 | 16254 ft | 409 kts | 15° |
| 2026-05-07 19:52 | 37.93354 | -77.66880 | 15700 ft | 403 kts | 16° |
| 2026-05-07 19:52 | 37.95931 | -77.65447 | 15152 ft | 405 kts | 16° |
| 2026-05-07 19:53 | 37.98534 | -77.64000 | 14596 ft | 411 kts | 16° |
| 2026-05-07 19:53 | 38.01154 | -77.62537 | 14011 ft | 414 kts | 17° |
| 2026-05-07 19:53 | 38.03755 | -77.61080 | 13380 ft | 413 kts | 17° |
| 2026-05-07 19:53 | 38.06372 | -77.59596 | 12795 ft | 411 kts | 19° |
| 2026-05-07 19:54 | 38.08927 | -77.57996 | 12319 ft | 407 kts | 21° |
| 2026-05-07 19:54 | 38.11428 | -77.56364 | 11824 ft | 402 kts | 21° |
| 2026-05-07 19:54 | 38.13900 | -77.54763 | 11367 ft | 396 kts | 21° |
| 2026-05-07 19:54 | 38.16320 | -77.53212 | 11081 ft | 385 kts | 20° |
| 2026-05-07 19:55 | 38.18707 | -77.51689 | 10696 ft | 379 kts | 20° |
| 2026-05-07 19:55 | 38.21032 | -77.50203 | 10411 ft | 371 kts | 20° |
| 2026-05-07 19:55 | 38.23313 | -77.48744 | 10103 ft | 363 kts | 20° |
| 2026-05-07 19:55 | 38.25596 | -77.47586 | 9921 ft | 340 kts | 9° |
| 2026-05-07 19:56 | 38.27787 | -77.46824 | 9889 ft | 314 kts | 6° |
| 2026-05-07 19:56 | 38.29856 | -77.46206 | 9613 ft | 298 kts | 360° |
| 2026-05-07 19:56 | 38.31890 | -77.45975 | 9092 ft | 291 kts | 355° |
| 2026-05-07 19:56 | 38.33920 | -77.45823 | 8730 ft | 289 kts | 356° |
| 2026-05-07 19:57 | 38.35892 | -77.45666 | 8529 ft | 280 kts | 356° |
| 2026-05-07 19:57 | 38.37811 | -77.45498 | 8347 ft | 271 kts | 356° |
| 2026-05-07 19:57 | 38.39685 | -77.45326 | 8232 ft | 271 kts | 356° |
| 2026-05-07 19:57 | 38.41580 | -77.45147 | 8087 ft | 273 kts | 357° |
| 2026-05-07 19:58 | 38.43479 | -77.44960 | 7963 ft | 274 kts | 358° |
| 2026-05-07 19:58 | 38.45385 | -77.44768 | 7823 ft | 274 kts | 358° |
| 2026-05-07 19:58 | 38.47279 | -77.44575 | 7686 ft | 273 kts | 358° |
| 2026-05-07 19:58 | 38.49177 | -77.44381 | 7539 ft | 273 kts | 358° |
| 2026-05-07 19:59 | 38.51066 | -77.44221 | 7400 ft | 270 kts | 355° |
| 2026-05-07 19:59 | 38.52922 | -77.44185 | 7280 ft | 265 kts | 354° |
| 2026-05-07 19:59 | 38.54761 | -77.44174 | 7166 ft | 263 kts | 354° |
| 2026-05-07 19:59 | 38.56591 | -77.44161 | 6985 ft | 265 kts | 354° |
| 2026-05-07 20:00 | 38.58463 | -77.44146 | 6609 ft | 270 kts | 355° |
| 2026-05-07 20:00 | 38.59284 | -77.44136 | 6453 ft | 268 kts | 356° |
| 2026-05-07 20:00 | 38.61135 | -77.44109 | 6059 ft | 263 kts | 356° |
| 2026-05-07 20:00 | 38.62941 | -77.44081 | 5760 ft | 255 kts | 357° |
| 2026-05-07 20:01 | 38.64693 | -77.44057 | 5480 ft | 249 kts | 357° |
| 2026-05-07 20:01 | 38.66410 | -77.44030 | 5215 ft | 245 kts | 358° |
| 2026-05-07 20:01 | 38.68115 | -77.44006 | 4921 ft | 245 kts | 358° |
| 2026-05-07 20:01 | 38.69819 | -77.43979 | 4631 ft | 244 kts | 359° |
| 2026-05-07 20:02 | 38.71519 | -77.43957 | 4423 ft | 248 kts | 359° |
| 2026-05-07 20:02 | 38.73256 | -77.43933 | 4110 ft | 249 kts | 359° |
| 2026-05-07 20:02 | 38.74984 | -77.43907 | 3795 ft | 245 kts | 360° |
| 2026-05-07 20:02 | 38.76647 | -77.43881 | 3463 ft | 234 kts | 360° |
| 2026-05-07 20:03 | 38.78243 | -77.43858 | 3162 ft | 224 kts | 0° |
| 2026-05-07 20:03 | 38.79763 | -77.43834 | 2847 ft | 212 kts | 360° |
| 2026-05-07 20:03 | 38.81194 | -77.43814 | 2576 ft | 200 kts | 360° |
| 2026-05-07 20:03 | 38.82571 | -77.43792 | 2302 ft | 194 kts | 0° |
| 2026-05-07 20:04 | 38.83906 | -77.43772 | 1996 ft | 189 kts | 0° |
| 2026-05-07 20:04 | 38.85172 | -77.43754 | 1738 ft | 175 kts | 360° |
| 2026-05-07 20:04 | 38.86324 | -77.43736 | 1574 ft | 154 kts | 0° |
| 2026-05-07 20:04 | 38.87361 | -77.43718 | 1361 ft | 145 kts | 360° |
| 2026-05-07 20:05 | 38.88398 | -77.43699 | 1090 ft | 150 kts | 359° |
| 2026-05-07 20:05 | 38.89443 | -77.43689 | 887 ft | 150 kts | 0° |
| 2026-05-07 20:05 | 38.90479 | -77.43670 | 686 ft | 147 kts | 0° |
| 2026-05-07 20:05 | 38.91490 | -77.43655 | 505 ft | 142 kts | 0° |
| 2026-05-07 20:06 | 38.92465 | -77.43639 | 334 ft | 140 kts | 0° |
| 2026-05-07 20:06 | 38.93378 | -77.43625 | 301 ft | 120 kts | 1° |
| 2026-05-07 20:06 | 38.94091 | -77.43617 | 303 ft | 85 kts | 0° |
| 2026-05-07 20:06 | 38.94563 | -77.43611 | 300 ft | 50 kts | 1° |
| 2026-05-07 20:07 | 38.94890 | -77.43607 | 299 ft | 45 kts | 0° |
| 2026-05-07 20:07 | 38.95194 | -77.43603 | 299 ft | 43 kts | 0° |
| 2026-05-07 20:07 | 38.95395 | -77.43675 | 297 ft | 16 kts | 279° |
| 2026-05-07 20:07 | 38.95397 | -77.43790 | 293 ft | 9 kts | 273° |
| 2026-05-07 20:08 | 38.95410 | -77.43845 | 295 ft | 2 kts | 321° |
| 2026-05-07 20:08 | 38.95426 | -77.43850 | 293 ft | 3 kts | 352° |
| 2026-05-07 20:08 | 38.95457 | -77.43855 | 294 ft | 7 kts | 351° |
| 2026-05-07 20:08 | 38.95487 | -77.43916 | 293 ft | 11 kts | 274° |
| 2026-05-07 20:09 | 38.95487 | -77.43942 | 292 ft | 0 kts | 271° |
| 2026-05-07 20:09 | 38.95488 | -77.43947 | 292 ft | 3 kts | 271° |
| 2026-05-07 20:09 | 38.95488 | -77.43973 | 292 ft | 6 kts | 270° |
| 2026-05-07 20:10 | 38.95488 | -77.44068 | 292 ft | 3 kts | 271° |
| 2026-05-07 20:10 | 38.95488 | -77.44085 | 292 ft | 0 kts | 271° |
| 2026-05-07 20:10 | 38.95489 | -77.44093 | 291 ft | 3 kts | 278° |
| 2026-05-07 20:10 | 38.95510 | -77.44127 | 294 ft | 4 kts | 339° |
| 2026-05-07 20:11 | 38.95544 | -77.44135 | 294 ft | 5 kts | 352° |
| 2026-05-07 20:11 | 38.95580 | -77.44136 | 294 ft | 5 kts | 0° |
| 2026-05-07 20:11 | 38.95616 | -77.44135 | 294 ft | 5 kts | 7° |
| 2026-05-07 20:11 | 38.95621 | -77.44133 | 295 ft | 2 kts | 16° |
| 2026-05-07 20:12 | 38.95631 | -77.44123 | 292 ft | 3 kts | 51° |
| 2026-05-07 20:12 | 38.95655 | -77.44070 | 293 ft | 8 kts | 87° |
| 2026-05-07 20:12 | 38.95654 | -77.43993 | 295 ft | 9 kts | 90° |
| 2026-05-07 20:12 | 38.95650 | -77.43917 | 293 ft | 8 kts | 109° |
| 2026-05-07 20:13 | 38.95648 | -77.43871 | 294 ft | 1 kts | 51° |
| 2026-05-07 20:13 | 38.95655 | -77.43873 | 295 ft | 1 kts | 341° |
| 2026-05-07 20:13 | 38.95657 | -77.43876 | 294 ft | 0 kts | 319° |